sensor_id;sensor_type;location;lat;lon;timestamp;pressure;altitude;pressure_sealevel;temperature;humidity
51359;BME280;37448;51.588;7.248;2022-09-09T00:02:22;100103.22;;;15.77;100.00
51359;BME280;37448;51.588;7.248;2022-09-09T00:10:29;100100.19;;;15.64;100.00
51359;BME280;37448;51.588;7.248;2022-09-09T00:16:00;100091.88;;;15.64;100.00
51359;BME280;37448;51.588;7.248;2022-09-09T00:21:18;100094.63;;;15.64;100.00
51359;BME280;37448;51.588;7.248;2022-09-09T00:23:54;100090.69;;;15.65;100.00
51359;BME280;37448;51.588;7.248;2022-09-09T00:26:35;100096.22;;;15.65;100.00
51359;BME280;37448;51.588;7.248;2022-09-09T00:29:31;100094.63;;;15.64;100.00
51359;BME280;37448;51.588;7.248;2022-09-09T00:32:16;100094.25;;;15.62;100.00
51359;BME280;37448;51.588;7.248;2022-09-09T00:34:54;100090.72;;;15.58;100.00
51359;BME280;37448;51.588;7.248;2022-09-09T00:37:26;100082.47;;;15.54;100.00
51359;BME280;37448;51.588;7.248;2022-09-09T00:40:02;100084.88;;;15.52;100.00
51359;BME280;37448;51.588;7.248;2022-09-09T00:42:41;100079.78;;;15.44;100.00
51359;BME280;37448;51.588;7.248;2022-09-09T00:48:09;100087.34;;;15.40;100.00
51359;BME280;37448;51.588;7.248;2022-09-09T00:50:57;100096.44;;;15.37;100.00
51359;BME280;37448;51.588;7.248;2022-09-09T00:53:56;100088.97;;;15.34;100.00
51359;BME280;37448;51.588;7.248;2022-09-09T00:57:00;100101.19;;;15.40;100.00
51359;BME280;37448;51.588;7.248;2022-09-09T00:59:50;100088.53;;;15.39;100.00
51359;BME280;37448;51.588;7.248;2022-09-09T01:02:35;100085.75;;;15.39;100.00
51359;BME280;37448;51.588;7.248;2022-09-09T01:08:39;100084.63;;;15.33;100.00
51359;BME280;37448;51.588;7.248;2022-09-09T01:11:25;100078.72;;;15.31;100.00
51359;BME280;37448;51.588;7.248;2022-09-09T01:14:49;100085.06;;;15.28;100.00
51359;BME280;37448;51.588;7.248;2022-09-09T01:16:59;100087.06;;;15.27;100.00
51359;BME280;37448;51.588;7.248;2022-09-09T01:22:26;100078.78;;;15.24;100.00
51359;BME280;37448;51.588;7.248;2022-09-09T01:25:22;100080.00;;;15.23;100.00
51359;BME280;37448;51.588;7.248;2022-09-09T01:28:03;100082.75;;;15.23;100.00
51359;BME280;37448;51.588;7.248;2022-09-09T01:30:37;100085.50;;;15.26;100.00
51359;BME280;37448;51.588;7.248;2022-09-09T01:33:13;100081.53;;;15.27;100.00
51359;BME280;37448;51.588;7.248;2022-09-09T01:35:53;100081.91;;;15.29;100.00
51359;BME280;37448;51.588;7.248;2022-09-09T01:38:26;100078.72;;;15.31;100.00
51359;BME280;37448;51.588;7.248;2022-09-09T01:40:58;100077.16;;;15.30;100.00
51359;BME280;37448;51.588;7.248;2022-09-09T01:43:28;100072.44;;;15.27;100.00
51359;BME280;37448;51.588;7.248;2022-09-09T01:46:01;100072.88;;;15.22;100.00
51359;BME280;37448;51.588;7.248;2022-09-09T01:48:32;100071.34;;;15.17;100.00
51359;BME280;37448;51.588;7.248;2022-09-09T01:51:03;100077.69;;;15.14;100.00
51359;BME280;37448;51.588;7.248;2022-09-09T01:53:33;100077.34;;;15.08;100.00
51359;BME280;37448;51.588;7.248;2022-09-09T01:56:35;100072.25;;;15.03;100.00
51359;BME280;37448;51.588;7.248;2022-09-09T02:02:14;100070.66;;;15.02;100.00
51359;BME280;37448;51.588;7.248;2022-09-09T02:04:49;100072.66;;;15.02;100.00
51359;BME280;37448;51.588;7.248;2022-09-09T02:07:30;100075.44;;;15.02;100.00
51359;BME280;37448;51.588;7.248;2022-09-09T02:10:16;100074.66;;;15.01;100.00
51359;BME280;37448;51.588;7.248;2022-09-09T02:12:51;100062.75;;;15.04;100.00
51359;BME280;37448;51.588;7.248;2022-09-09T02:15:35;100073.41;;;15.06;100.00
51359;BME280;37448;51.588;7.248;2022-09-09T02:18:10;100074.19;;;15.06;100.00
51359;BME280;37448;51.588;7.248;2022-09-09T02:20:45;100078.13;;;15.09;100.00
51359;BME280;37448;51.588;7.248;2022-09-09T02:23:16;100077.28;;;15.16;100.00
51359;BME280;37448;51.588;7.248;2022-09-09T02:25:48;100082.41;;;15.17;100.00
51359;BME280;37448;51.588;7.248;2022-09-09T02:28:23;100085.53;;;15.19;100.00
51359;BME280;37448;51.588;7.248;2022-09-09T02:30:55;100082.41;;;15.17;100.00
51359;BME280;37448;51.588;7.248;2022-09-09T02:33:30;100076.88;;;15.17;100.00
51359;BME280;37448;51.588;7.248;2022-09-09T02:36:05;100079.25;;;15.19;100.00
51359;BME280;37448;51.588;7.248;2022-09-09T02:38:42;100085.19;;;15.17;100.00
51359;BME280;37448;51.588;7.248;2022-09-09T02:41:35;100091.09;;;15.16;100.00
51359;BME280;37448;51.588;7.248;2022-09-09T02:44:11;100086.78;;;15.15;100.00
51359;BME280;37448;51.588;7.248;2022-09-09T02:50:10;100079.28;;;15.12;100.00
51359;BME280;37448;51.588;7.248;2022-09-09T02:55:41;100074.19;;;15.10;100.00
51359;BME280;37448;51.588;7.248;2022-09-09T02:58:17;100079.72;;;15.10;100.00
51359;BME280;37448;51.588;7.248;2022-09-09T03:00:50;100083.63;;;15.13;100.00
51359;BME280;37448;51.588;7.248;2022-09-09T03:03:21;100081.25;;;15.15;100.00
51359;BME280;37448;51.588;7.248;2022-09-09T03:05:52;100069.75;;;15.16;100.00
51359;BME280;37448;51.588;7.248;2022-09-09T03:08:22;100069.72;;;15.20;100.00
51359;BME280;37448;51.588;7.248;2022-09-09T03:10:58;100074.47;;;15.23;100.00
51359;BME280;37448;51.588;7.248;2022-09-09T03:13:31;100075.25;;;15.23;100.00
51359;BME280;37448;51.588;7.248;2022-09-09T03:16:01;100064.53;;;15.25;100.00
51359;BME280;37448;51.588;7.248;2022-09-09T03:18:34;100068.50;;;15.24;100.00
51359;BME280;37448;51.588;7.248;2022-09-09T03:21:04;100068.09;;;15.26;100.00
51359;BME280;37448;51.588;7.248;2022-09-09T03:23:35;100061.75;;;15.25;100.00
51359;BME280;37448;51.588;7.248;2022-09-09T03:26:05;100057.81;;;15.26;100.00
51359;BME280;37448;51.588;7.248;2022-09-09T03:28:36;100055.44;;;15.25;100.00
51359;BME280;37448;51.588;7.248;2022-09-09T03:31:07;100057.81;;;15.26;100.00
51359;BME280;37448;51.588;7.248;2022-09-09T03:33:40;100053.06;;;15.27;100.00
51359;BME280;37448;51.588;7.248;2022-09-09T03:36:11;100053.84;;;15.27;100.00
51359;BME280;37448;51.588;7.248;2022-09-09T03:38:41;100057.03;;;15.26;100.00
51359;BME280;37448;51.588;7.248;2022-09-09T03:41:12;100051.47;;;15.26;100.00
51359;BME280;37448;51.588;7.248;2022-09-09T03:43:42;100046.78;;;15.23;100.00
51359;BME280;37448;51.588;7.248;2022-09-09T03:46:13;100053.84;;;15.24;100.00
51359;BME280;37448;51.588;7.248;2022-09-09T03:48:43;100055.06;;;15.23;100.00
51359;BME280;37448;51.588;7.248;2022-09-09T03:51:14;100056.28;;;15.22;100.00
51359;BME280;37448;51.588;7.248;2022-09-09T03:53:45;100051.56;;;15.15;100.00
51359;BME280;37448;51.588;7.248;2022-09-09T03:56:16;100051.59;;;15.12;100.00
51359;BME280;37448;51.588;7.248;2022-09-09T03:58:46;100060.72;;;15.08;100.00
51359;BME280;37448;51.588;7.248;2022-09-09T04:01:17;100060.78;;;15.05;100.00
51359;BME280;37448;51.588;7.248;2022-09-09T04:03:47;100056.47;;;15.00;100.00
51359;BME280;37448;51.588;7.248;2022-09-09T04:06:18;100060.06;;;14.97;100.00
51359;BME280;37448;51.588;7.248;2022-09-09T04:08:51;100065.19;;;14.95;100.00
51359;BME280;37448;51.588;7.248;2022-09-09T04:11:22;100063.63;;;14.94;100.00
51359;BME280;37448;51.588;7.248;2022-09-09T04:13:53;100063.63;;;14.94;100.00
51359;BME280;37448;51.588;7.248;2022-09-09T04:16:23;100063.66;;;14.91;100.00
51359;BME280;37448;51.588;7.248;2022-09-09T04:18:53;100065.22;;;14.92;100.00
51359;BME280;37448;51.588;7.248;2022-09-09T04:21:24;100068.38;;;14.90;100.00
51359;BME280;37448;51.588;7.248;2022-09-09T04:23:54;100069.97;;;14.91;100.00
51359;BME280;37448;51.588;7.248;2022-09-09T04:26:24;100075.16;;;14.89;100.00
51359;BME280;37448;51.588;7.248;2022-09-09T04:28:55;100079.88;;;14.89;100.00
51359;BME280;37448;51.588;7.248;2022-09-09T04:31:25;100068.38;;;14.90;100.00
51359;BME280;37448;51.588;7.248;2022-09-09T04:33:56;100068.78;;;14.92;100.00
51359;BME280;37448;51.588;7.248;2022-09-09T04:36:26;100068.38;;;14.90;100.00
51359;BME280;37448;51.588;7.248;2022-09-09T04:38:57;100064.84;;;14.93;100.00
51359;BME280;37448;51.588;7.248;2022-09-09T04:41:27;100069.56;;;14.93;100.00
51359;BME280;37448;51.588;7.248;2022-09-09T04:43:58;100071.56;;;14.92;100.00
51359;BME280;37448;51.588;7.248;2022-09-09T04:46:29;100077.91;;;14.89;100.00
51359;BME280;37448;51.588;7.248;2022-09-09T04:49:00;100072.38;;;14.89;100.00
51359;BME280;37448;51.588;7.248;2022-09-09T04:51:30;100075.16;;;14.89;100.00
51359;BME280;37448;51.588;7.248;2022-09-09T04:54:01;100071.59;;;14.89;100.00
51359;BME280;37448;51.588;7.248;2022-09-09T04:56:31;100075.16;;;14.89;100.00
51359;BME280;37448;51.588;7.248;2022-09-09T04:59:02;100074.75;;;14.87;100.00
51359;BME280;37448;51.588;7.248;2022-09-09T05:01:33;100081.09;;;14.84;100.00
51359;BME280;37448;51.588;7.248;2022-09-09T05:04:04;100074.41;;;14.78;100.00
51359;BME280;37448;51.588;7.248;2022-09-09T05:06:34;100076.00;;;14.79;100.00
51359;BME280;37448;51.588;7.248;2022-09-09T05:09:06;100077.16;;;14.82;100.00
51359;BME280;37448;51.588;7.248;2022-09-09T05:11:36;100082.28;;;14.83;100.00
51359;BME280;37448;51.588;7.248;2022-09-09T05:14:08;100086.59;;;14.88;100.00
51359;BME280;37448;51.588;7.248;2022-09-09T05:16:38;100066.84;;;14.89;100.00
51359;BME280;37448;51.588;7.248;2022-09-09T05:19:09;100078.28;;;14.91;100.00
51359;BME280;37448;51.588;7.248;2022-09-09T05:21:39;100076.25;;;14.95;100.00
51359;BME280;37448;51.588;7.248;2022-09-09T05:24:11;100079.00;;;14.99;100.00
51359;BME280;37448;51.588;7.248;2022-09-09T05:26:42;100070.66;;;15.02;100.00
51359;BME280;37448;51.588;7.248;2022-09-09T05:29:13;100072.63;;;15.05;100.00
51359;BME280;37448;51.588;7.248;2022-09-09T05:31:43;100072.63;;;15.05;100.00
51359;BME280;37448;51.588;7.248;2022-09-09T05:34:14;100076.94;;;15.10;100.00
51359;BME280;37448;51.588;7.248;2022-09-09T05:36:44;100063.84;;;15.14;100.00
51359;BME280;37448;51.588;7.248;2022-09-09T05:39:14;100074.09;;;15.17;100.00
51359;BME280;37448;51.588;7.248;2022-09-09T05:41:45;100071.28;;;15.21;100.00
51359;BME280;37448;51.588;7.248;2022-09-09T05:44:15;100071.69;;;15.23;100.00
51359;BME280;37448;51.588;7.248;2022-09-09T05:46:46;100069.66;;;15.27;100.00
51359;BME280;37448;51.588;7.248;2022-09-09T05:49:16;100074.38;;;15.30;100.00
51359;BME280;37448;51.588;7.248;2022-09-09T05:51:47;100068.84;;;15.30;100.00
51359;BME280;37448;51.588;7.248;2022-09-09T05:54:18;100067.22;;;15.32;100.00
51359;BME280;37448;51.588;7.248;2022-09-09T05:56:48;100067.22;;;15.36;100.00
51359;BME280;37448;51.588;7.248;2022-09-09T05:59:20;100071.47;;;15.44;100.00
51359;BME280;37448;51.588;7.248;2022-09-09T06:01:53;100070.25;;;15.52;100.00
51359;BME280;37448;51.588;7.248;2022-09-09T06:04:24;100063.41;;;15.60;100.00
51359;BME280;37448;51.588;7.248;2022-09-09T06:06:54;100074.81;;;15.69;100.00
51359;BME280;37448;51.588;7.248;2022-09-09T06:09:25;100075.53;;;15.73;100.00
51359;BME280;37448;51.588;7.248;2022-09-09T06:11:55;100071.56;;;15.74;100.00
51359;BME280;37448;51.588;7.248;2022-09-09T06:14:27;100077.09;;;15.78;100.00
51359;BME280;37448;51.588;7.248;2022-09-09T06:16:58;100078.63;;;15.82;100.00
51359;BME280;37448;51.588;7.248;2022-09-09T06:19:28;100076.59;;;15.86;100.00
51359;BME280;37448;51.588;7.248;2022-09-09T06:21:58;100083.28;;;15.89;100.00
51359;BME280;37448;51.588;7.248;2022-09-09T06:24:29;100086.38;;;15.94;100.00
51359;BME280;37448;51.588;7.248;2022-09-09T06:27:00;100086.69;;;16.00;100.00
51359;BME280;37448;51.588;7.248;2022-09-09T06:29:30;100081.88;;;16.08;100.00
51359;BME280;37448;51.588;7.248;2022-09-09T06:32:01;100085.38;;;16.12;100.00
51359;BME280;37448;51.588;7.248;2022-09-09T06:34:31;100089.63;;;16.20;100.00
51359;BME280;37448;51.588;7.248;2022-09-09T06:37:01;100083.34;;;16.16;100.00
51359;BME280;37448;51.588;7.248;2022-09-09T06:39:32;100080.53;;;16.19;100.00
51359;BME280;37448;51.588;7.248;2022-09-09T06:42:02;100088.38;;;16.24;100.00
51359;BME280;37448;51.588;7.248;2022-09-09T06:44:33;100092.31;;;16.27;100.00
51359;BME280;37448;51.588;7.248;2022-09-09T06:47:04;100083.53;;;16.32;100.00
51359;BME280;37448;51.588;7.248;2022-09-09T06:49:35;100088.22;;;16.35;100.00
51359;BME280;37448;51.588;7.248;2022-09-09T06:52:05;100087.75;;;16.40;100.00
51359;BME280;37448;51.588;7.248;2022-09-09T06:54:36;100084.06;;;16.50;100.00
51359;BME280;37448;51.588;7.248;2022-09-09T06:57:07;100082.72;;;16.62;100.00
51359;BME280;37448;51.588;7.248;2022-09-09T06:59:38;100090.75;;;16.83;100.00
51359;BME280;37448;51.588;7.248;2022-09-09T07:02:08;100090.78;;;16.79;100.00
51359;BME280;37448;51.588;7.248;2022-09-09T07:04:38;100090.78;;;16.79;100.00
51359;BME280;37448;51.588;7.248;2022-09-09T07:07:09;100094.38;;;16.80;100.00
51359;BME280;37448;51.588;7.248;2022-09-09T07:09:42;100101.44;;;16.84;100.00
51359;BME280;37448;51.588;7.248;2022-09-09T07:12:12;100104.81;;;16.96;100.00
51359;BME280;37448;51.588;7.248;2022-09-09T07:14:43;100102.09;;;17.15;100.00
51359;BME280;37448;51.588;7.248;2022-09-09T07:17:13;100105.13;;;17.48;99.54
51359;BME280;37448;51.588;7.248;2022-09-09T07:19:44;100100.63;;;17.54;100.00
51359;BME280;37448;51.588;7.248;2022-09-09T07:22:14;100106.97;;;17.54;98.44
51359;BME280;37448;51.588;7.248;2022-09-09T07:24:46;100116.03;;;17.82;96.93
51359;BME280;37448;51.588;7.248;2022-09-09T07:27:16;100113.31;;;18.17;94.77
51359;BME280;37448;51.588;7.248;2022-09-09T07:29:47;100118.66;;;19.48;89.80
51359;BME280;37448;51.588;7.248;2022-09-09T07:32:17;100122.31;;;19.90;86.04
51359;BME280;37448;51.588;7.248;2022-09-09T07:34:47;100131.81;;;19.64;85.04
51359;BME280;37448;51.588;7.248;2022-09-09T07:37:18;100130.94;;;19.67;89.15
51359;BME280;37448;51.588;7.248;2022-09-09T07:39:49;100124.66;;;19.63;85.18
51359;BME280;37448;51.588;7.248;2022-09-09T07:42:21;100126.59;;;19.50;84.02
51359;BME280;37448;51.588;7.248;2022-09-09T07:44:51;100131.91;;;19.44;83.07
51359;BME280;37448;51.588;7.248;2022-09-09T07:47:24;100127.78;;;20.23;81.71
51359;BME280;37448;51.588;7.248;2022-09-09T07:49:55;100135.38;;;20.64;76.58
51359;BME280;37448;51.588;7.248;2022-09-09T07:52:26;100135.81;;;20.21;79.30
51359;BME280;37448;51.588;7.248;2022-09-09T07:54:57;100132.34;;;20.17;78.84
51359;BME280;37448;51.588;7.248;2022-09-09T07:57:28;100126.09;;;20.25;76.92
51359;BME280;37448;51.588;7.248;2022-09-09T08:00:00;100137.97;;;21.09;71.18
51359;BME280;37448;51.588;7.248;2022-09-09T08:02:31;100139.00;;;21.96;69.33
51359;BME280;37448;51.588;7.248;2022-09-09T08:05:01;100141.34;;;22.19;68.54
51359;BME280;37448;51.588;7.248;2022-09-09T08:07:32;100137.72;;;22.31;67.57
51359;BME280;37448;51.588;7.248;2022-09-09T08:10:03;100149.44;;;22.17;66.13
51359;BME280;37448;51.588;7.248;2022-09-09T08:12:34;100148.94;;;21.63;68.84
51359;BME280;37448;51.588;7.248;2022-09-09T08:15:04;100148.63;;;21.95;68.43
51359;BME280;37448;51.588;7.248;2022-09-09T08:17:35;100144.84;;;21.89;68.23
51359;BME280;37448;51.588;7.248;2022-09-09T08:20:08;100149.94;;;22.03;65.50
51359;BME280;37448;51.588;7.248;2022-09-09T08:22:38;100153.59;;;22.35;65.54
51359;BME280;37448;51.588;7.248;2022-09-09T08:25:08;100160.31;;;22.90;63.14
51359;BME280;37448;51.588;7.248;2022-09-09T08:27:40;100138.41;;;22.45;63.76
51359;BME280;37448;51.588;7.248;2022-09-09T08:30:11;100146.81;;;22.45;63.72
51359;BME280;37448;51.588;7.248;2022-09-09T08:32:41;100145.31;;;22.09;65.04
51359;BME280;37448;51.588;7.248;2022-09-09T08:35:13;100151.47;;;21.35;68.07
51359;BME280;37448;51.588;7.248;2022-09-09T08:37:43;100148.63;;;21.48;66.58
51359;BME280;37448;51.588;7.248;2022-09-09T08:40:22;100150.38;;;21.20;67.31
51359;BME280;37448;51.588;7.248;2022-09-09T08:42:57;100163.66;;;21.41;68.10
51359;BME280;37448;51.588;7.248;2022-09-09T08:45:47;100152.50;;;21.16;68.70
51359;BME280;37448;51.588;7.248;2022-09-09T08:49:23;100155.72;;;21.27;69.47
51359;BME280;37448;51.588;7.248;2022-09-09T08:51:30;100157.28;;;20.90;69.34
51359;BME280;37448;51.588;7.248;2022-09-09T08:54:02;100159.09;;;21.69;67.98
51359;BME280;37448;51.588;7.248;2022-09-09T08:56:33;100152.06;;;21.99;67.07
51359;BME280;37448;51.588;7.248;2022-09-09T08:59:04;100153.34;;;23.03;63.56
51359;BME280;37448;51.588;7.248;2022-09-09T09:01:42;100160.06;;;23.46;59.84
51359;BME280;37448;51.588;7.248;2022-09-09T09:07:14;100158.69;;;24.32;54.56
51359;BME280;37448;51.588;7.248;2022-09-09T09:10:53;100159.78;;;24.35;56.26
51359;BME280;37448;51.588;7.248;2022-09-09T09:12:58;100154.47;;;23.73;58.39
51359;BME280;37448;51.588;7.248;2022-09-09T09:15:36;100158.13;;;22.94;60.16
51359;BME280;37448;51.588;7.248;2022-09-09T09:18:09;100160.06;;;22.53;60.51
51359;BME280;37448;51.588;7.248;2022-09-09T09:20:58;100157.75;;;22.08;63.16
51359;BME280;37448;51.588;7.248;2022-09-09T09:23:59;100159.09;;;21.69;64.20
51359;BME280;37448;51.588;7.248;2022-09-09T09:26:34;100165.06;;;21.59;65.39
51359;BME280;37448;51.588;7.248;2022-09-09T09:29:11;100164.75;;;21.44;62.95
51359;BME280;37448;51.588;7.248;2022-09-09T09:31:45;100160.31;;;21.81;61.29
51359;BME280;37448;51.588;7.248;2022-09-09T09:34:18;100160.59;;;21.49;62.51
51359;BME280;37448;51.588;7.248;2022-09-09T09:36:56;100156.59;;;21.12;64.82
51359;BME280;37448;51.588;7.248;2022-09-09T09:39:29;100162.09;;;21.15;63.62
51359;BME280;37448;51.588;7.248;2022-09-09T09:42:09;100154.25;;;20.85;64.24
51359;BME280;37448;51.588;7.248;2022-09-09T09:44:41;100150.69;;;21.22;62.10
51359;BME280;37448;51.588;7.248;2022-09-09T09:47:19;100150.91;;;22.53;59.33
51359;BME280;37448;51.588;7.248;2022-09-09T09:49:56;100157.69;;;22.95;57.96
51359;BME280;37448;51.588;7.248;2022-09-09T09:52:30;100154.31;;;23.67;55.40
51359;BME280;37448;51.588;7.248;2022-09-09T09:55:03;100177.88;;;23.30;53.27
51359;BME280;37448;51.588;7.248;2022-09-09T09:57:37;100168.00;;;23.56;53.64
51359;BME280;37448;51.588;7.248;2022-09-09T10:00:19;100153.19;;;24.56;53.27
51359;BME280;37448;51.588;7.248;2022-09-09T10:02:50;100158.81;;;24.56;52.53
51359;BME280;37448;51.588;7.248;2022-09-09T10:05:24;100158.72;;;24.74;52.76
51359;BME280;37448;51.588;7.248;2022-09-09T10:08:11;100156.59;;;24.69;51.61
51359;BME280;37448;51.588;7.248;2022-09-09T10:14:27;100161.94;;;23.67;52.23
51359;BME280;37448;51.588;7.248;2022-09-09T10:17:15;100151.25;;;23.35;56.13
51359;BME280;37448;51.588;7.248;2022-09-09T10:20:06;100152.09;;;22.43;56.68
51359;BME280;37448;51.588;7.248;2022-09-09T10:22:47;100150.34;;;22.36;57.95
51359;BME280;37448;51.588;7.248;2022-09-09T10:25:38;100149.66;;;22.54;57.93
51359;BME280;37448;51.588;7.248;2022-09-09T10:36:21;100152.72;;;22.47;58.08
51359;BME280;37448;51.588;7.248;2022-09-09T10:39:04;100153.06;;;22.05;56.74
51359;BME280;37448;51.588;7.248;2022-09-09T10:50:30;100144.56;;;24.69;51.05
51359;BME280;37448;51.588;7.248;2022-09-09T10:53:22;100130.41;;;24.45;49.02
51359;BME280;37448;51.588;7.248;2022-09-09T10:56:01;100146.22;;;24.15;48.66
51359;BME280;37448;51.588;7.248;2022-09-09T11:06:44;100137.94;;;24.02;50.96
51359;BME280;37448;51.588;7.248;2022-09-09T11:09:21;100147.31;;;23.90;51.05
51359;BME280;37448;51.588;7.248;2022-09-09T11:11:56;100137.88;;;23.30;50.13
51359;BME280;37448;51.588;7.248;2022-09-09T11:14:43;100149.34;;;23.22;49.56
51359;BME280;37448;51.588;7.248;2022-09-09T11:17:20;100140.16;;;22.73;51.07
51359;BME280;37448;51.588;7.248;2022-09-09T11:19:52;100140.56;;;23.02;52.02
51359;BME280;37448;51.588;7.248;2022-09-09T11:22:33;100144.41;;;22.87;50.59
51359;BME280;37448;51.588;7.248;2022-09-09T11:25:08;100150.19;;;22.92;52.69
51359;BME280;37448;51.588;7.248;2022-09-09T11:36:30;100141.22;;;22.01;57.31
51359;BME280;37448;51.588;7.248;2022-09-09T11:39:17;100134.53;;;21.86;57.78
51359;BME280;37448;51.588;7.248;2022-09-09T11:41:53;100135.06;;;21.72;55.67
51359;BME280;37448;51.588;7.248;2022-09-09T11:44:29;100126.00;;;21.68;57.14
51359;BME280;37448;51.588;7.248;2022-09-09T11:47:00;100126.56;;;21.63;56.45
51359;BME280;37448;51.588;7.248;2022-09-09T11:49:39;100130.50;;;21.53;57.07
51359;BME280;37448;51.588;7.248;2022-09-09T11:52:25;100122.44;;;21.89;56.37
51359;BME280;37448;51.588;7.248;2022-09-09T11:55:28;100119.75;;;22.72;55.71
51359;BME280;37448;51.588;7.248;2022-09-09T11:58:04;100123.47;;;23.09;54.75
51359;BME280;37448;51.588;7.248;2022-09-09T12:00:40;100111.50;;;23.18;55.95
51359;BME280;37448;51.588;7.248;2022-09-09T12:06:24;100117.25;;;22.74;54.87
51359;BME280;37448;51.588;7.248;2022-09-09T12:12:25;100117.31;;;22.62;53.17
51359;BME280;37448;51.588;7.248;2022-09-09T12:14:57;100112.94;;;22.52;54.66
51359;BME280;37448;51.588;7.248;2022-09-09T12:17:30;100109.25;;;22.64;54.07
51359;BME280;37448;51.588;7.248;2022-09-09T12:20:21;100117.13;;;22.25;55.06
51359;BME280;37448;51.588;7.248;2022-09-09T12:22:56;100130.50;;;21.87;56.51
51359;BME280;37448;51.588;7.248;2022-09-09T12:25:49;100134.25;;;21.71;58.48
51359;BME280;37448;51.588;7.248;2022-09-09T12:31:20;100136.50;;;21.04;65.33
51359;BME280;37448;51.588;7.248;2022-09-09T12:33:53;100132.91;;;20.66;66.21
51359;BME280;37448;51.588;7.248;2022-09-09T12:36:32;100143.63;;;20.55;66.64
51359;BME280;37448;51.588;7.248;2022-09-09T12:39:19;100136.16;;;20.64;64.60
51359;BME280;37448;51.588;7.248;2022-09-09T12:41:53;100131.47;;;20.86;65.52
51359;BME280;37448;51.588;7.248;2022-09-09T12:44:27;100134.03;;;21.31;64.65
51359;BME280;37448;51.588;7.248;2022-09-09T12:47:01;100129.72;;;21.52;61.72
51359;BME280;37448;51.588;7.248;2022-09-09T12:49:36;100125.69;;;21.87;62.52
51359;BME280;37448;51.588;7.248;2022-09-09T12:52:17;100130.06;;;21.88;62.30
51359;BME280;37448;51.588;7.248;2022-09-09T12:54:50;100121.16;;;21.81;61.95
51359;BME280;37448;51.588;7.248;2022-09-09T12:57:25;100128.06;;;21.89;62.01
51359;BME280;37448;51.588;7.248;2022-09-09T13:00:10;100122.59;;;21.73;62.19
51359;BME280;37448;51.588;7.248;2022-09-09T13:03:03;100118.19;;;21.63;62.42
51359;BME280;37448;51.588;7.248;2022-09-09T13:05:44;100116.75;;;21.58;59.53
51359;BME280;37448;51.588;7.248;2022-09-09T13:08:17;100117.31;;;21.87;60.55
51359;BME280;37448;51.588;7.248;2022-09-09T13:13:27;100115.41;;;21.97;60.57
51359;BME280;37448;51.588;7.248;2022-09-09T13:16:01;100106.88;;;22.01;59.29
51359;BME280;37448;51.588;7.248;2022-09-09T13:18:36;100106.06;;;22.22;61.59
51359;BME280;37448;51.588;7.248;2022-09-09T13:21:09;100094.94;;;22.31;59.71
51359;BME280;37448;51.588;7.248;2022-09-09T13:23:39;100107.94;;;22.77;60.08
51359;BME280;37448;51.588;7.248;2022-09-09T13:26:26;100102.81;;;22.54;59.92
51359;BME280;37448;51.588;7.248;2022-09-09T13:29:15;100099.16;;;22.36;60.13
51359;BME280;37448;51.588;7.248;2022-09-09T13:31:48;100104.28;;;22.06;62.37
51359;BME280;37448;51.588;7.248;2022-09-09T13:34:31;100102.34;;;22.03;60.66
51359;BME280;37448;51.588;7.248;2022-09-09T13:37:05;100103.03;;;21.73;62.45
51359;BME280;37448;51.588;7.248;2022-09-09T13:39:36;100114.91;;;21.42;63.80
51359;BME280;37448;51.588;7.248;2022-09-09T13:42:23;100116.78;;;21.46;63.19
51359;BME280;37448;51.588;7.248;2022-09-09T13:44:56;100118.94;;;21.29;62.76
51359;BME280;37448;51.588;7.248;2022-09-09T13:47:35;100123.88;;;20.87;69.82
51359;BME280;37448;51.588;7.248;2022-09-09T13:52:56;100131.81;;;19.93;76.15
51359;BME280;37448;51.588;7.248;2022-09-09T13:55:30;100135.09;;;19.75;78.88
51359;BME280;37448;51.588;7.248;2022-09-09T13:58:02;100130.50;;;19.52;83.87
51359;BME280;37448;51.588;7.248;2022-09-09T14:00:35;100133.91;;;19.28;88.56
51359;BME280;37448;51.588;7.248;2022-09-09T14:03:05;100140.97;;;19.16;90.39
51359;BME280;37448;51.588;7.248;2022-09-09T14:05:37;100151.72;;;18.98;90.82
51359;BME280;37448;51.588;7.248;2022-09-09T14:08:15;100150.34;;;18.90;92.29
51359;BME280;37448;51.588;7.248;2022-09-09T14:10:46;100160.56;;;18.77;96.76
51359;BME280;37448;51.588;7.248;2022-09-09T14:13:16;100149.78;;;18.62;100.00
51359;BME280;37448;51.588;7.248;2022-09-09T14:15:48;100150.09;;;18.64;100.00
51359;BME280;37448;51.588;7.248;2022-09-09T14:18:18;100137.34;;;18.47;100.00
51359;BME280;37448;51.588;7.248;2022-09-09T14:20:49;100123.22;;;18.58;100.00
51359;BME280;37448;51.588;7.248;2022-09-09T14:23:20;100118.44;;;18.39;100.00
51359;BME280;37448;51.588;7.248;2022-09-09T14:25:52;100107.31;;;18.58;100.00
51359;BME280;37448;51.588;7.248;2022-09-09T14:28:22;100105.59;;;18.97;100.00
51359;BME280;37448;51.588;7.248;2022-09-09T14:30:52;100100.56;;;19.08;100.00
51359;BME280;37448;51.588;7.248;2022-09-09T14:33:23;100099.34;;;19.25;100.00
51359;BME280;37448;51.588;7.248;2022-09-09T14:35:59;100103.72;;;19.26;100.00
51359;BME280;37448;51.588;7.248;2022-09-09T14:38:35;100098.31;;;19.51;100.00
51359;BME280;37448;51.588;7.248;2022-09-09T14:41:11;100099.63;;;19.47;100.00
51359;BME280;37448;51.588;7.248;2022-09-09T14:43:41;100095.25;;;19.46;100.00
51359;BME280;37448;51.588;7.248;2022-09-09T14:46:14;100098.47;;;19.28;100.00
51359;BME280;37448;51.588;7.248;2022-09-09T14:48:45;100098.81;;;19.30;100.00
51359;BME280;37448;51.588;7.248;2022-09-09T14:51:20;100095.88;;;19.21;100.00